createdAt,value
2018-07-20T00:03:29.297Z,1009.52
2018-07-20T00:08:25.130Z,1009.46
2018-07-20T00:13:20.856Z,1009.57
2018-07-20T00:18:17.907Z,1009.50
2018-07-20T00:23:13.583Z,1009.49
2018-07-20T00:28:09.452Z,1009.44
2018-07-20T00:33:05.912Z,1009.36
2018-07-20T00:38:01.534Z,1009.36
2018-07-20T00:42:57.177Z,1009.33
2018-07-20T00:47:52.974Z,1009.12
2018-07-20T00:52:50.015Z,1009.16
2018-07-20T00:57:45.577Z,1009.05
2018-07-20T01:02:41.341Z,1009.11
2018-07-20T01:07:37.250Z,1008.95
2018-07-20T01:12:33.550Z,1008.88
2018-07-20T01:17:29.278Z,1008.85
2018-07-20T01:22:26.040Z,1008.93
2018-07-20T01:27:21.788Z,1008.92
2018-07-20T01:32:17.944Z,1008.90
2018-07-20T01:37:14.932Z,1008.86
2018-07-20T01:42:10.326Z,1008.99
2018-07-20T01:47:06.703Z,1008.95
2018-07-20T01:52:02.728Z,1008.88
2018-07-20T01:56:58.328Z,1008.83
2018-07-20T02:01:54.052Z,1008.85
2018-07-20T02:06:50.449Z,1008.95
2018-07-20T02:11:46.223Z,1008.89
2018-07-20T02:16:41.990Z,1008.81
2018-07-20T02:21:38.006Z,1008.78
2018-07-20T02:26:34.171Z,1008.76
2018-07-20T02:31:29.896Z,1008.75
2018-07-20T02:36:25.469Z,1008.66
2018-07-20T02:41:21.347Z,1008.59
2018-07-20T02:46:18.200Z,1008.54
2018-07-20T02:51:13.668Z,1008.50
2018-07-20T02:56:10.469Z,1008.52
2018-07-20T03:01:05.932Z,1008.55
2018-07-20T03:06:02.811Z,1008.50
2018-07-20T03:10:58.628Z,1008.52
2018-07-20T03:15:54.509Z,1008.51
2018-07-20T03:20:50.265Z,1008.56
2018-07-20T03:25:46.482Z,1008.36
2018-07-20T03:30:42.559Z,1008.42
2018-07-20T03:35:39.349Z,1008.36
2018-07-20T03:40:35.355Z,1008.34
2018-07-20T03:45:31.263Z,1008.42
2018-07-20T03:50:27.420Z,1008.38
2018-07-20T03:55:23.255Z,1008.38
2018-07-20T04:00:19.283Z,1008.29
2018-07-20T04:05:15.211Z,1008.30
2018-07-20T04:10:11.355Z,1008.36
2018-07-20T04:15:07.378Z,1008.27
2018-07-20T04:20:03.310Z,1008.25
2018-07-20T04:24:59.124Z,1008.25
2018-07-20T04:29:55.183Z,1008.33
2018-07-20T04:34:50.864Z,1008.30
2018-07-20T04:39:48.081Z,1008.17
2018-07-20T04:44:44.034Z,1008.18
2018-07-20T04:49:40.944Z,1008.24
2018-07-20T04:54:36.774Z,1008.22
2018-07-20T04:59:33.101Z,1008.32
2018-07-20T05:04:29.625Z,1008.30
2018-07-20T05:09:27.078Z,1008.33
2018-07-20T05:14:23.135Z,1008.26
2018-07-20T05:19:20.632Z,1008.23
2018-07-20T05:24:16.274Z,1008.14
2018-07-20T05:29:12.642Z,1008.21
2018-07-20T05:34:09.033Z,1008.27
2018-07-20T05:39:04.852Z,1008.08
2018-07-20T05:44:01.013Z,1008.21
2018-07-20T05:48:57.054Z,1008.21
2018-07-20T05:53:54.209Z,1008.12
2018-07-20T05:58:51.042Z,1008.11
2018-07-20T06:03:47.173Z,1008.19
2018-07-20T06:08:43.501Z,1008.09
2018-07-20T06:13:40.221Z,1008.04
2018-07-20T06:18:35.772Z,1008.13
2018-07-20T06:23:31.571Z,1008.12
2018-07-20T06:28:27.251Z,1008.07
2018-07-20T06:33:22.998Z,1008.13
2018-07-20T06:38:20.428Z,1008.17
2018-07-20T06:43:16.612Z,1008.05
2018-07-20T06:48:13.217Z,1008.03
2018-07-20T06:53:09.137Z,1008.13
2018-07-20T06:58:06.044Z,1008.15
2018-07-20T07:03:02.807Z,1008.16
2018-07-20T07:07:58.313Z,1008.06
2018-07-20T07:12:54.223Z,1008.07
2018-07-20T07:17:50.333Z,1008.07
2018-07-20T07:22:46.436Z,1008.10
2018-07-20T07:27:42.691Z,1008.06
2018-07-20T07:32:38.950Z,1008.05
2018-07-20T07:37:34.872Z,1008.14
2018-07-20T07:42:32.187Z,1008.03
2018-07-20T07:47:29.353Z,1007.95
2018-07-20T07:52:25.011Z,1008.02
2018-07-20T07:57:21.510Z,1008.06
2018-07-20T08:02:20.781Z,1008.07
2018-07-20T08:07:20.322Z,1008.02
2018-07-20T08:12:18.733Z,1008.03
2018-07-20T08:17:15.881Z,1007.98
2018-07-20T08:22:13.347Z,1007.88
2018-07-20T08:27:10.632Z,1007.90
2018-07-20T08:32:07.666Z,1007.83
2018-07-20T08:37:04.606Z,1007.85
2018-07-20T08:42:02.283Z,1007.82
2018-07-20T08:46:58.664Z,1007.78
2018-07-20T08:51:54.774Z,1007.73
2018-07-20T08:56:50.929Z,1007.72
2018-07-20T09:01:47.556Z,1007.66
2018-07-20T09:06:43.604Z,1007.70
2018-07-20T09:11:40.338Z,1007.72
2018-07-20T09:16:37.265Z,1007.69
2018-07-20T09:21:34.593Z,1007.64
2018-07-20T09:26:32.062Z,1007.62
2018-07-20T09:31:28.173Z,1007.51
2018-07-20T09:36:24.413Z,1007.52
2018-07-20T09:41:20.802Z,1007.58
2018-07-20T09:46:18.034Z,1007.60
2018-07-20T09:51:13.750Z,1007.60
2018-07-20T09:56:10.591Z,1007.41
2018-07-20T10:01:06.424Z,1007.54
2018-07-20T10:06:04.382Z,1007.48
2018-07-20T10:11:00.569Z,1007.41
2018-07-20T10:15:56.367Z,1007.37
2018-07-20T10:20:52.305Z,1007.24
2018-07-20T10:25:48.573Z,1007.23
2018-07-20T10:30:44.775Z,1007.31
2018-07-20T10:35:39.824Z,1007.27
2018-07-20T10:40:37.317Z,1007.28
2018-07-20T10:45:33.700Z,1007.19
2018-07-20T10:50:31.049Z,1007.19
2018-07-20T10:55:29.194Z,1007.14
2018-07-20T11:00:30.105Z,1007.07
2018-07-20T11:05:24.060Z,1006.90
2018-07-20T11:10:19.792Z,1007.00
2018-07-20T11:15:16.781Z,1006.96
2018-07-20T11:20:13.928Z,1006.87
2018-07-20T11:25:10.488Z,1006.85
2018-07-20T11:30:08.093Z,1006.82
2018-07-20T11:35:05.288Z,1006.87
2018-07-20T11:40:01.115Z,1006.69
2018-07-20T11:44:57.384Z,1006.68
2018-07-20T11:49:50.762Z,1006.56
2018-07-20T11:54:46.854Z,1006.49
2018-07-20T11:59:41.364Z,1006.43
2018-07-20T12:04:36.199Z,1006.47
2018-07-20T12:09:31.977Z,1006.43
2018-07-20T12:14:28.943Z,1006.28
2018-07-20T12:19:24.447Z,1006.29
2018-07-20T12:24:21.016Z,1006.21
2018-07-20T12:29:20.461Z,1006.29
2018-07-20T12:34:15.999Z,1006.24
2018-07-20T12:39:13.526Z,1006.27
2018-07-20T12:44:09.650Z,1006.03
2018-07-20T12:49:07.776Z,1006.01
2018-07-20T12:54:01.803Z,1006.02
2018-07-20T12:58:58.929Z,1006.10
2018-07-20T13:03:56.589Z,1006.07
2018-07-20T13:08:53.914Z,1006.16
2018-07-20T13:13:51.147Z,1006.11
2018-07-20T13:18:48.363Z,1005.94
2018-07-20T13:23:43.745Z,1005.80
2018-07-20T13:28:38.125Z,1005.89
2018-07-20T13:33:35.013Z,1005.79
2018-07-20T13:38:30.919Z,1005.66
2018-07-20T13:43:28.065Z,1005.58
2018-07-20T13:48:23.747Z,1005.53
2018-07-20T13:53:19.671Z,1005.57
2018-07-20T13:58:16.213Z,1005.47
2018-07-20T14:03:12.229Z,1005.57
2018-07-20T14:08:08.421Z,1005.35
2018-07-20T14:13:03.713Z,1005.29
2018-07-20T14:18:00.617Z,1005.28
2018-07-20T14:22:55.893Z,1005.30
2018-07-20T14:27:51.696Z,1005.29
2018-07-20T14:32:47.746Z,1005.28
2018-07-20T14:37:43.244Z,1005.22
2018-07-20T14:42:38.763Z,1005.19
2018-07-20T14:47:35.448Z,1005.11
2018-07-20T14:52:30.791Z,1005.14
2018-07-20T14:57:27.685Z,1005.15
2018-07-20T15:02:23.428Z,1005.15
2018-07-20T15:07:19.287Z,1004.91
2018-07-20T15:12:15.175Z,1004.89
2018-07-20T15:17:11.557Z,1004.86
2018-07-20T15:22:07.762Z,1004.77
2018-07-20T15:27:03.780Z,1004.76
2018-07-20T15:31:59.859Z,1004.67
2018-07-20T15:36:56.724Z,1004.78
2018-07-20T15:41:52.285Z,1004.64
2018-07-20T15:46:48.572Z,1004.67
2018-07-20T15:56:44.876Z,1004.57
2018-07-20T16:01:40.789Z,1004.49
2018-07-20T16:06:36.611Z,1004.47
2018-07-20T16:11:32.447Z,1004.51
2018-07-20T16:16:29.445Z,1004.50
2018-07-20T16:21:26.222Z,1004.38
2018-07-20T16:26:23.251Z,1004.37
2018-07-20T16:31:18.947Z,1004.44
2018-07-20T16:36:15.693Z,1004.35
2018-07-20T16:41:11.432Z,1004.36
2018-07-20T16:46:07.612Z,1004.29
2018-07-20T16:51:03.689Z,1004.34
2018-07-20T16:55:59.771Z,1004.27
2018-07-20T17:00:56.980Z,1004.20
2018-07-20T17:05:52.686Z,1004.06
2018-07-20T17:10:48.756Z,1004.11
2018-07-20T17:15:45.122Z,1004.03
2018-07-20T17:20:41.217Z,1003.96
2018-07-20T17:25:37.550Z,1003.98
2018-07-20T17:30:33.546Z,1004.04
2018-07-20T17:35:29.638Z,1003.97
2018-07-20T17:40:26.567Z,1003.96
2018-07-20T17:45:22.206Z,1003.98
2018-07-20T17:50:18.431Z,1003.97
2018-07-20T17:55:15.448Z,1003.86
2018-07-20T18:00:12.152Z,1003.88
2018-07-20T18:05:07.779Z,1003.94
2018-07-20T18:10:03.748Z,1003.95
2018-07-20T18:15:01.009Z,1003.98
2018-07-20T18:19:56.827Z,1003.93
2018-07-20T18:24:53.736Z,1003.87
2018-07-20T18:29:50.823Z,1003.79
2018-07-20T18:34:47.584Z,1003.80
2018-07-20T18:39:43.253Z,1003.82
2018-07-20T18:44:39.532Z,1003.91
2018-07-20T18:49:36.173Z,1003.83
2018-07-20T18:54:32.854Z,1003.92
2018-07-20T18:59:28.630Z,1003.88
2018-07-20T19:04:24.550Z,1004.02
2018-07-20T19:09:21.415Z,1004.02
2018-07-20T19:14:18.468Z,1004.00
2018-07-20T19:19:13.973Z,1004.02
2018-07-20T19:24:11.089Z,1004.02
2018-07-20T19:29:06.742Z,1004.17
2018-07-20T19:34:02.584Z,1004.25
2018-07-20T19:38:58.549Z,1004.29
2018-07-20T19:43:54.532Z,1004.44
2018-07-20T19:48:50.474Z,1004.22
2018-07-20T19:53:46.521Z,1004.27
2018-07-20T19:58:42.795Z,1004.33
2018-07-20T20:03:38.480Z,1004.37
2018-07-20T20:08:35.790Z,1004.47
2018-07-20T20:13:31.224Z,1004.55
2018-07-20T20:18:26.991Z,1004.44
2018-07-20T20:23:22.831Z,1004.56
2018-07-20T20:28:18.739Z,1004.52
2018-07-20T20:33:15.816Z,1004.60
2018-07-20T20:38:11.843Z,1004.60
2018-07-20T20:43:07.724Z,1004.60
2018-07-20T20:48:03.671Z,1004.61
2018-07-20T20:52:59.642Z,1004.61
2018-07-20T20:57:56.646Z,1004.48
2018-07-20T21:02:52.519Z,1004.53
2018-07-20T21:07:48.503Z,1004.48
2018-07-20T21:12:45.420Z,1004.47
2018-07-20T21:17:41.142Z,1004.40
2018-07-20T21:22:38.124Z,1004.40
2018-07-20T21:27:33.907Z,1004.51
2018-07-20T21:32:29.798Z,1004.49
2018-07-20T21:37:25.745Z,1004.44
2018-07-20T21:42:21.632Z,1004.50
2018-07-20T21:47:17.761Z,1004.45
2018-07-20T21:52:13.655Z,1004.51
2018-07-20T21:57:09.542Z,1004.49
2018-07-20T22:02:05.709Z,1004.64
2018-07-20T22:07:01.954Z,1004.71
2018-07-20T22:11:57.844Z,1004.69
2018-07-20T22:16:54.978Z,1004.70
2018-07-20T22:21:51.010Z,1004.65
2018-07-20T22:26:47.997Z,1004.62
2018-07-20T22:31:44.424Z,1004.61
2018-07-20T22:36:41.262Z,1004.68
2018-07-20T22:41:36.918Z,1004.65
2018-07-20T22:46:32.801Z,1004.68
2018-07-20T22:51:29.064Z,1004.69
2018-07-20T22:56:25.128Z,1004.64
2018-07-20T23:01:21.021Z,1004.60
2018-07-20T23:06:16.943Z,1004.55
2018-07-20T23:11:14.134Z,1004.48
2018-07-20T23:16:09.582Z,1004.35
2018-07-20T23:21:06.408Z,1004.26
2018-07-20T23:26:02.102Z,1004.20
2018-07-20T23:30:58.145Z,1004.18
2018-07-20T23:35:55.260Z,1004.16
2018-07-20T23:40:50.754Z,1004.10
2018-07-20T23:45:46.611Z,1004.02
2018-07-20T23:50:42.666Z,1004.12
2018-07-20T23:55:38.855Z,1004.10
